Time;durP1;ratioP1;P1;durP2;ratioP2;P2;SDS_P1;SDS_P2;PMS_P1;PMS_P2;Temp;Humidity;BMP_temperature;BMP_pressure;BME280_temperature;BME280_humidity;BME280_pressure;Samples;Min_cycle;Max_cycle;Signal;HPM_P1;HPM_P2
2022/06/30 00:01:51;;;;;;;12.65;9.05;;;;;;;;;;5064991;28;20640;-69
2022/06/30 00:04:16;;;;;;;13.73;9.10;;;;;;;;;;5071062;28;20024;-69
2022/06/30 00:06:41;;;;;;;16.87;8.87;;;;;;;;;;5064049;28;20533;-69
2022/06/30 00:09:07;;;;;;;16.15;9.48;;;;;;;;;;5066569;28;20293;-68
2022/06/30 00:11:32;;;;;;;17.30;9.63;;;;;;;;;;5063002;28;20051;-68
2022/06/30 00:13:57;;;;;;;14.52;9.35;;;;;;;;;;5038541;28;20024;-69
2022/06/30 00:16:23;;;;;;;13.27;9.32;;;;;;;;;;5065854;28;20024;-68
2022/06/30 00:18:48;;;;;;;17.20;10.00;;;;;;;;;;5061933;28;20116;-71
2022/06/30 00:21:13;;;;;;;12.83;9.40;;;;;;;;;;5068791;28;20492;-69
2022/06/30 00:23:38;;;;;;;14.73;9.35;;;;;;;;;;5060470;28;20282;-69
2022/06/30 00:26:04;;;;;;;11.93;8.82;;;;;;;;;;5067935;28;20020;-68
2022/06/30 00:28:29;;;;;;;15.07;9.85;;;;;;;;;;5063789;28;20016;-68
2022/06/30 00:30:54;;;;;;;14.03;9.20;;;;;;;;;;5056765;28;20013;-69
2022/06/30 00:33:19;;;;;;;14.43;9.30;;;;;;;;;;5067649;28;20034;-68
2022/06/30 00:35:45;;;;;;;14.20;9.85;;;;;;;;;;5059294;28;20279;-68
2022/06/30 00:38:10;;;;;;;15.18;9.77;;;;;;;;;;5043148;28;20028;-69
2022/06/30 00:40:40;;;;;;;14.15;9.23;;;;;;;;;;5060705;28;20036;-68
2022/06/30 00:43:05;;;;;;;14.02;9.27;;;;;;;;;;5069034;28;20138;-69
2022/06/30 00:45:31;;;;;;;16.13;10.50;;;;;;;;;;5067220;28;20498;-68
2022/06/30 00:47:56;;;;;;;14.43;10.32;;;;;;;;;;5061795;28;20352;-69
2022/06/30 00:50:21;;;;;;;15.50;10.43;;;;;;;;;;5062407;28;20062;-69
2022/06/30 00:52:49;;;;;;;20.70;11.05;;;;;;;;;;5061105;28;20024;-69
2022/06/30 00:55:15;;;;;;;12.25;9.93;;;;;;;;;;5062087;28;20077;-68
2022/06/30 00:57:41;;;;;;;15.25;10.15;;;;;;;;;;5064597;28;20450;-69
2022/06/30 01:00:06;;;;;;;14.35;9.57;;;;;;;;;;5063882;28;20024;-69
2022/06/30 01:02:32;;;;;;;13.23;10.48;;;;;;;;;;5060788;28;20457;-69
2022/06/30 01:04:57;;;;;;;15.27;10.32;;;;;;;;;;5062887;28;20070;-70
2022/06/30 01:07:23;;;;;;;14.43;10.05;;;;;;;;;;5066235;28;20021;-70
2022/06/30 01:12:42;;;;;;;15.48;10.15;;;;;;;;;;5068662;28;20028;-70
2022/06/30 01:15:07;;;;;;;13.35;10.15;;;;;;;;;;5058075;28;20024;-70
2022/06/30 01:17:32;;;;;;;14.02;9.95;;;;;;;;;;5066192;28;20024;-70
2022/06/30 01:19:59;;;;;;;13.80;9.73;;;;;;;;;;5064402;28;20032;-70
2022/06/30 01:22:24;;;;;;;21.83;9.73;;;;;;;;;;5058350;28;20279;-70
2022/06/30 01:24:49;;;;;;;14.37;10.30;;;;;;;;;;5067225;28;20472;-70
2022/06/30 01:27:15;;;;;;;13.95;10.23;;;;;;;;;;5064802;28;20029;-70
2022/06/30 01:29:40;;;;;;;17.45;10.55;;;;;;;;;;5060998;28;20052;-70
2022/06/30 01:32:05;;;;;;;13.23;9.67;;;;;;;;;;5058388;28;20016;-70
2022/06/30 01:34:31;;;;;;;16.50;10.65;;;;;;;;;;5062032;28;20270;-70
2022/06/30 01:36:56;;;;;;;18.50;10.50;;;;;;;;;;5060501;28;20028;-70
2022/06/30 01:39:21;;;;;;;17.70;10.90;;;;;;;;;;5065836;28;20136;-70
2022/06/30 01:41:46;;;;;;;19.55;10.82;;;;;;;;;;5059476;28;20122;-70
2022/06/30 01:44:12;;;;;;;15.53;10.20;;;;;;;;;;5064328;28;20013;-70
2022/06/30 01:46:44;;;;;;;18.90;11.13;;;;;;;;;;5058210;28;20626;-69
2022/06/30 01:49:09;;;;;;;16.40;11.52;;;;;;;;;;5060828;28;20279;-70
2022/06/30 01:51:35;;;;;;;21.02;12.13;;;;;;;;;;5059672;28;20035;-70
2022/06/30 01:54:00;;;;;;;22.53;12.03;;;;;;;;;;5062933;28;20012;-70
2022/06/30 01:56:25;;;;;;;15.13;11.47;;;;;;;;;;5064837;28;20318;-70
2022/06/30 01:58:51;;;;;;;18.08;11.88;;;;;;;;;;5057823;28;20025;-70
2022/06/30 02:01:16;;;;;;;14.02;10.57;;;;;;;;;;5054935;28;20025;-70
2022/06/30 02:03:41;;;;;;;18.77;11.40;;;;;;;;;;5061928;28;20441;-70
2022/06/30 02:06:07;;;;;;;15.03;10.87;;;;;;;;;;5062962;28;20095;-70
2022/06/30 02:08:32;;;;;;;15.73;11.38;;;;;;;;;;5057526;28;20380;-70
2022/06/30 02:10:57;;;;;;;26.40;11.13;;;;;;;;;;5065721;28;20488;-70
2022/06/30 02:13:22;;;;;;;20.23;10.85;;;;;;;;;;5066383;28;20297;-70
2022/06/30 02:15:47;;;;;;;26.53;10.37;;;;;;;;;;5064515;28;20028;-70
2022/06/30 02:18:13;;;;;;;16.90;11.77;;;;;;;;;;5061259;28;20405;-70
2022/06/30 02:20:38;;;;;;;14.60;11.27;;;;;;;;;;5065233;28;20017;-70
2022/06/30 02:23:04;;;;;;;17.33;10.67;;;;;;;;;;5065547;28;20095;-70
2022/06/30 02:25:31;;;;;;;15.38;10.35;;;;;;;;;;5061532;28;20274;-70
2022/06/30 02:27:56;;;;;;;18.15;10.85;;;;;;;;;;5060995;28;20048;-70
2022/06/30 02:30:22;;;;;;;21.45;10.93;;;;;;;;;;5064115;28;20493;-70
2022/06/30 02:32:47;;;;;;;18.33;11.63;;;;;;;;;;5059512;28;20021;-68
2022/06/30 02:35:13;;;;;;;15.73;11.90;;;;;;;;;;5058607;28;20024;-69
2022/06/30 02:37:38;;;;;;;16.70;11.50;;;;;;;;;;5058429;28;20031;-69
2022/06/30 02:40:04;;;;;;;23.55;12.48;;;;;;;;;;5043605;28;20028;-69
2022/06/30 02:42:29;;;;;;;19.40;12.02;;;;;;;;;;5064467;28;20052;-69
2022/06/30 02:44:54;;;;;;;25.52;12.75;;;;;;;;;;5065990;28;20092;-68
2022/06/30 02:47:20;;;;;;;19.45;11.75;;;;;;;;;;5065787;28;20473;-69
2022/06/30 02:49:45;;;;;;;19.10;11.40;;;;;;;;;;5060721;28;20039;-70
2022/06/30 02:52:10;;;;;;;23.03;11.87;;;;;;;;;;5063288;28;20469;-68
2022/06/30 02:54:35;;;;;;;18.25;12.52;;;;;;;;;;5055714;28;20283;-69
2022/06/30 02:57:00;;;;;;;17.77;11.50;;;;;;;;;;5057591;28;20070;-68
2022/06/30 02:59:26;;;;;;;17.13;12.20;;;;;;;;;;5058723;28;20259;-70
2022/06/30 03:01:51;;;;;;;25.47;12.40;;;;;;;;;;5052195;28;20021;-69
2022/06/30 03:04:16;;;;;;;21.48;11.70;;;;;;;;;;5069212;28;20024;-69
2022/06/30 03:06:41;;;;;;;17.73;11.43;;;;;;;;;;5055956;28;20013;-70
2022/06/30 03:09:07;;;;;;;16.88;12.93;;;;;;;;;;5067929;28;20302;-69
2022/06/30 03:11:32;;;;;;;21.92;12.43;;;;;;;;;;5059984;28;20373;-68
2022/06/30 03:13:57;;;;;;;21.10;12.35;;;;;;;;;;5060066;28;20512;-69
2022/06/30 03:16:23;;;;;;;21.27;13.40;;;;;;;;;;5061383;28;20496;-70
2022/06/30 03:18:48;;;;;;;16.83;12.35;;;;;;;;;;5062955;28;20112;-70
2022/06/30 03:21:13;;;;;;;15.95;11.55;;;;;;;;;;5055956;28;20381;-69
2022/06/30 03:23:39;;;;;;;18.42;12.13;;;;;;;;;;5067490;28;20419;-69
2022/06/30 03:26:04;;;;;;;18.02;11.90;;;;;;;;;;5063740;28;20492;-68
2022/06/30 03:28:30;;;;;;;18.20;12.10;;;;;;;;;;5066467;28;20021;-69
2022/06/30 03:30:55;;;;;;;21.02;11.88;;;;;;;;;;5065570;28;20601;-69
2022/06/30 03:33:21;;;;;;;19.60;12.32;;;;;;;;;;5063686;28;20028;-69
2022/06/30 03:35:46;;;;;;;19.93;12.70;;;;;;;;;;5067185;28;20542;-69
2022/06/30 03:38:12;;;;;;;20.45;12.35;;;;;;;;;;5053968;28;20283;-69
2022/06/30 03:40:37;;;;;;;17.50;11.65;;;;;;;;;;5070929;28;20388;-69
2022/06/30 03:43:02;;;;;;;18.77;12.25;;;;;;;;;;5064600;28;20078;-69
2022/06/30 03:45:28;;;;;;;20.27;12.37;;;;;;;;;;5062924;28;20601;-69
2022/06/30 03:47:53;;;;;;;18.83;13.10;;;;;;;;;;5068461;28;20285;-69
2022/06/30 03:50:19;;;;;;;14.90;11.52;;;;;;;;;;5059281;28;20021;-69
2022/06/30 03:52:44;;;;;;;22.05;13.32;;;;;;;;;;5066225;28;20035;-69
2022/06/30 03:55:09;;;;;;;17.88;12.88;;;;;;;;;;5064061;28;20077;-69
2022/06/30 03:57:35;;;;;;;17.43;12.83;;;;;;;;;;5060861;28;20028;-69
2022/06/30 04:00:00;;;;;;;20.00;12.68;;;;;;;;;;5059628;28;20662;-69
2022/06/30 04:02:25;;;;;;;23.87;12.43;;;;;;;;;;5064737;28;20465;-69
2022/06/30 04:04:50;;;;;;;18.10;12.65;;;;;;;;;;5062855;28;20290;-69
2022/06/30 04:07:15;;;;;;;25.10;14.50;;;;;;;;;;5064628;28;20383;-69
2022/06/30 04:09:41;;;;;;;21.83;12.37;;;;;;;;;;5063446;28;20016;-68
2022/06/30 04:12:06;;;;;;;19.27;13.50;;;;;;;;;;5063660;28;20028;-69
2022/06/30 04:14:31;;;;;;;20.23;13.32;;;;;;;;;;5062968;28;20125;-70
2022/06/30 04:16:56;;;;;;;20.93;14.03;;;;;;;;;;5058955;28;20511;-69
2022/06/30 04:19:22;;;;;;;22.67;13.57;;;;;;;;;;5061699;28;20271;-69
2022/06/30 04:21:47;;;;;;;21.08;13.60;;;;;;;;;;5064786;28;20070;-69
2022/06/30 04:24:13;;;;;;;18.27;13.63;;;;;;;;;;5062247;28;20021;-69
2022/06/30 04:26:38;;;;;;;23.57;13.97;;;;;;;;;;5067893;28;20396;-69
2022/06/30 04:29:03;;;;;;;19.57;14.03;;;;;;;;;;5062328;28;20021;-69
2022/06/30 04:34:12;;;;;;;26.45;14.18;;;;;;;;;;5059578;28;20278;-69
2022/06/30 04:36:37;;;;;;;18.50;13.13;;;;;;;;;;5065779;28;20059;-69
2022/06/30 04:39:02;;;;;;;19.07;13.97;;;;;;;;;;5063182;28;20009;-69
2022/06/30 04:41:27;;;;;;;26.13;14.30;;;;;;;;;;5063821;28;20290;-68
2022/06/30 04:43:57;;;;;;;20.20;14.03;;;;;;;;;;5059299;28;20282;-69
2022/06/30 04:46:22;;;;;;;23.73;14.13;;;;;;;;;;5061241;28;20751;-69
2022/06/30 04:48:48;;;;;;;17.77;13.55;;;;;;;;;;5067697;28;20020;-68
2022/06/30 04:51:14;;;;;;;25.02;14.23;;;;;;;;;;5062592;28;20016;-69
2022/06/30 04:53:40;;;;;;;28.38;14.55;;;;;;;;;;5062909;28;20099;-69
2022/06/30 04:56:05;;;;;;;16.63;12.98;;;;;;;;;;5065635;28;20020;-69
2022/06/30 04:58:30;;;;;;;18.63;13.68;;;;;;;;;;5068170;28;20476;-69
2022/06/30 05:00:56;;;;;;;16.13;12.50;;;;;;;;;;5064528;28;20021;-69
2022/06/30 05:03:21;;;;;;;18.30;13.53;;;;;;;;;;5070251;28;20410;-69
2022/06/30 05:05:46;;;;;;;21.97;13.40;;;;;;;;;;5065063;28;20298;-69
2022/06/30 05:08:11;;;;;;;21.10;14.23;;;;;;;;;;5063443;28;20276;-69
2022/06/30 05:10:36;;;;;;;19.95;13.52;;;;;;;;;;5059282;28;20774;-69
2022/06/30 05:13:02;;;;;;;22.23;13.63;;;;;;;;;;5060969;28;20047;-69
2022/06/30 05:15:27;;;;;;;19.40;13.75;;;;;;;;;;5062331;28;21333;-69
2022/06/30 05:17:52;;;;;;;22.73;13.85;;;;;;;;;;5067394;28;20027;-68
2022/06/30 05:20:18;;;;;;;18.10;12.80;;;;;;;;;;5064461;28;20020;-69
2022/06/30 05:22:43;;;;;;;17.90;13.07;;;;;;;;;;5059064;28;20361;-69
2022/06/30 05:27:52;;;;;;;22.08;13.10;;;;;;;;;;5061605;28;20117;-69
2022/06/30 05:30:18;;;;;;;22.95;13.57;;;;;;;;;;5059685;28;20055;-69
2022/06/30 05:32:44;;;;;;;16.52;12.38;;;;;;;;;;5065839;28;20411;-69
2022/06/30 05:35:09;;;;;;;19.55;13.48;;;;;;;;;;5062293;28;20024;-69
2022/06/30 05:37:34;;;;;;;22.15;13.38;;;;;;;;;;5062206;28;20021;-69
2022/06/30 05:39:59;;;;;;;17.80;13.30;;;;;;;;;;5059437;28;20038;-69
2022/06/30 05:42:25;;;;;;;20.33;13.37;;;;;;;;;;5053806;28;20271;-69
2022/06/30 05:44:50;;;;;;;19.90;13.93;;;;;;;;;;5062497;28;20082;-69
2022/06/30 05:47:15;;;;;;;18.07;13.17;;;;;;;;;;5060068;28;20028;-69
2022/06/30 05:49:40;;;;;;;22.80;14.10;;;;;;;;;;5058097;28;20620;-69
2022/06/30 05:52:05;;;;;;;18.13;12.40;;;;;;;;;;5055561;28;20365;-69
2022/06/30 05:54:31;;;;;;;18.27;11.93;;;;;;;;;;5061838;28;20017;-69
2022/06/30 05:56:56;;;;;;;18.07;12.00;;;;;;;;;;5059696;28;20147;-69
2022/06/30 05:59:21;;;;;;;23.23;12.38;;;;;;;;;;5069529;28;20021;-69
2022/06/30 06:01:46;;;;;;;16.30;11.20;;;;;;;;;;5065938;28;20025;-68
2022/06/30 06:04:18;;;;;;;24.38;11.93;;;;;;;;;;5065922;28;20890;-68
2022/06/30 06:06:43;;;;;;;18.42;12.30;;;;;;;;;;5040884;28;20108;-69
2022/06/30 06:09:08;;;;;;;19.13;11.03;;;;;;;;;;5046411;28;20026;-68
2022/06/30 06:11:34;;;;;;;18.23;10.90;;;;;;;;;;5046871;28;20817;-68
2022/06/30 06:13:59;;;;;;;16.58;11.38;;;;;;;;;;5043471;28;20470;-68
2022/06/30 06:16:25;;;;;;;14.30;11.15;;;;;;;;;;5035472;28;20024;-69
2022/06/30 06:18:50;;;;;;;19.60;10.50;;;;;;;;;;5038751;28;20697;-68
2022/06/30 06:21:16;;;;;;;14.75;9.57;;;;;;;;;;5037250;28;20399;-69
2022/06/30 06:23:41;;;;;;;15.75;10.57;;;;;;;;;;5039464;28;20028;-68
2022/06/30 06:26:06;;;;;;;17.07;10.50;;;;;;;;;;5036667;28;20042;-69
2022/06/30 06:31:16;;;;;;;18.38;11.25;;;;;;;;;;5042469;28;20790;-69
2022/06/30 06:33:43;;;;;;;17.80;11.15;;;;;;;;;;5040225;28;20033;-68
2022/06/30 06:36:08;;;;;;;16.50;9.15;;;;;;;;;;5048369;28;20045;-69
2022/06/30 06:38:33;;;;;;;16.77;9.67;;;;;;;;;;5042237;28;20442;-68
2022/06/30 06:40:59;;;;;;;14.47;9.27;;;;;;;;;;5045503;28;20820;-68
2022/06/30 06:43:24;;;;;;;11.90;9.02;;;;;;;;;;5044996;28;20017;-68
2022/06/30 06:45:49;;;;;;;13.30;9.83;;;;;;;;;;5045405;28;20021;-69
2022/06/30 06:48:14;;;;;;;11.43;8.97;;;;;;;;;;5038497;28;20133;-68
2022/06/30 06:50:39;;;;;;;12.93;9.07;;;;;;;;;;5044024;28;20018;-68
2022/06/30 06:53:05;;;;;;;12.05;8.63;;;;;;;;;;5044300;28;20474;-68
2022/06/30 06:55:30;;;;;;;13.00;8.77;;;;;;;;;;5045152;28;20024;-68
2022/06/30 06:57:55;;;;;;;13.70;8.52;;;;;;;;;;5044257;28;20355;-69
2022/06/30 07:00:20;;;;;;;9.57;8.20;;;;;;;;;;5044429;28;20366;-70
2022/06/30 07:02:46;;;;;;;10.80;7.93;;;;;;;;;;5041214;28;20113;-68
2022/06/30 07:05:11;;;;;;;15.90;9.30;;;;;;;;;;5043341;28;20401;-68
2022/06/30 07:07:36;;;;;;;11.10;9.00;;;;;;;;;;5040066;28;20021;-68
2022/06/30 07:10:05;;;;;;;13.10;9.15;;;;;;;;;;5043654;28;20074;-68
2022/06/30 07:12:31;;;;;;;13.75;8.90;;;;;;;;;;5046322;28;20175;-68
2022/06/30 07:14:56;;;;;;;17.45;8.48;;;;;;;;;;5031332;28;20436;-67
2022/06/30 07:17:21;;;;;;;11.17;7.60;;;;;;;;;;5022990;28;20036;-68
2022/06/30 07:19:46;;;;;;;21.70;8.33;;;;;;;;;;5019827;28;20029;-68
2022/06/30 07:22:12;;;;;;;21.47;8.00;;;;;;;;;;5031467;28;20025;-68
2022/06/30 07:24:37;;;;;;;13.47;7.07;;;;;;;;;;5030154;28;20656;-68
2022/06/30 07:27:02;;;;;;;10.37;7.47;;;;;;;;;;5028428;28;20024;-68
2022/06/30 07:29:27;;;;;;;13.60;8.75;;;;;;;;;;5030633;28;20370;-68
2022/06/30 07:31:53;;;;;;;9.63;7.63;;;;;;;;;;5033177;28;20044;-68
2022/06/30 07:34:18;;;;;;;8.95;7.45;;;;;;;;;;5033078;28;20171;-69
2022/06/30 07:36:44;;;;;;;12.50;7.55;;;;;;;;;;5030846;28;20060;-69
2022/06/30 07:39:09;;;;;;;8.38;7.05;;;;;;;;;;5032377;28;20462;-69
2022/06/30 07:41:34;;;;;;;11.00;7.80;;;;;;;;;;5033027;28;20013;-68
2022/06/30 07:44:01;;;;;;;9.30;7.40;;;;;;;;;;5028279;28;20284;-69
2022/06/30 07:46:26;;;;;;;9.63;7.20;;;;;;;;;;5028944;28;20048;-69
2022/06/30 07:48:51;;;;;;;11.53;6.77;;;;;;;;;;5032250;28;20041;-69
2022/06/30 07:51:18;;;;;;;9.43;5.90;;;;;;;;;;5029123;28;20327;-70
2022/06/30 07:53:44;;;;;;;13.98;7.05;;;;;;;;;;5028826;28;20478;-70
2022/06/30 07:56:09;;;;;;;13.40;7.33;;;;;;;;;;5027247;28;20101;-70
2022/06/30 07:58:34;;;;;;;13.40;7.53;;;;;;;;;;5029545;28;20929;-70
2022/06/30 08:01:00;;;;;;;10.37;6.73;;;;;;;;;;5030884;28;20087;-70
2022/06/30 08:03:25;;;;;;;8.48;7.07;;;;;;;;;;5029610;28;20489;-69
2022/06/30 08:05:50;;;;;;;14.37;7.20;;;;;;;;;;5030938;28;20021;-69
2022/06/30 08:08:16;;;;;;;17.25;7.90;;;;;;;;;;5031949;28;20338;-69
2022/06/30 08:10:41;;;;;;;13.37;6.17;;;;;;;;;;5030541;28;20021;-69
2022/06/30 08:13:06;;;;;;;10.33;5.63;;;;;;;;;;5032252;28;20021;-69
2022/06/30 08:15:31;;;;;;;6.87;5.50;;;;;;;;;;5030843;28;20043;-69
2022/06/30 08:18:00;;;;;;;7.90;6.07;;;;;;;;;;5030076;28;20093;-69
2022/06/30 08:20:25;;;;;;;7.70;5.40;;;;;;;;;;5029377;28;20017;-69
2022/06/30 08:22:50;;;;;;;11.33;6.07;;;;;;;;;;5031975;28;20020;-69
2022/06/30 08:25:16;;;;;;;8.20;5.43;;;;;;;;;;5024750;28;20018;-69
2022/06/30 08:27:41;;;;;;;8.60;5.17;;;;;;;;;;5028523;28;20264;-69
2022/06/30 08:30:06;;;;;;;17.13;6.17;;;;;;;;;;5031691;28;20424;-69
2022/06/30 08:32:31;;;;;;;13.23;5.65;;;;;;;;;;5032030;28;20028;-69
2022/06/30 08:34:57;;;;;;;10.77;5.73;;;;;;;;;;5029382;28;20075;-69
2022/06/30 08:37:22;;;;;;;8.60;4.80;;;;;;;;;;5028449;28;20110;-69
2022/06/30 08:42:32;;;;;;;9.63;5.30;;;;;;;;;;5012011;28;20076;-69
2022/06/30 08:47:41;;;;;;;11.07;6.05;;;;;;;;;;5026717;28;20031;-69
2022/06/30 08:50:08;;;;;;;13.70;5.97;;;;;;;;;;5028753;28;20021;-69
2022/06/30 08:52:39;;;;;;;8.98;5.40;;;;;;;;;;5031488;28;20056;-69
2022/06/30 08:55:06;;;;;;;11.68;6.00;;;;;;;;;;5031530;28;20025;-69
2022/06/30 08:57:32;;;;;;;9.40;5.97;;;;;;;;;;5025658;28;20018;-70
2022/06/30 08:59:57;;;;;;;14.32;6.22;;;;;;;;;;5029279;28;20513;-70
2022/06/30 09:02:23;;;;;;;15.52;5.30;;;;;;;;;;5031311;28;20064;-69
2022/06/30 09:04:48;;;;;;;11.57;5.77;;;;;;;;;;5028496;28;20048;-69
2022/06/30 09:07:13;;;;;;;18.90;6.37;;;;;;;;;;5031093;28;20029;-69
2022/06/30 09:09:38;;;;;;;9.03;5.10;;;;;;;;;;5031111;28;20013;-69
2022/06/30 09:12:12;;;;;;;8.60;5.00;;;;;;;;;;5026310;28;20097;-69
2022/06/30 09:14:39;;;;;;;7.75;4.68;;;;;;;;;;5028278;28;20601;-69
2022/06/30 09:17:06;;;;;;;8.50;4.38;;;;;;;;;;5028615;28;20395;-70
2022/06/30 09:19:31;;;;;;;7.70;3.60;;;;;;;;;;5029792;28;20041;-69
2022/06/30 09:22:04;;;;;;;14.40;3.13;;;;;;;;;;5031114;28;20462;-69
2022/06/30 09:24:29;;;;;;;4.10;2.22;;;;;;;;;;5029169;28;20029;-69
2022/06/30 09:27:13;;;;;;;7.53;4.07;;;;;;;;;;5027478;28;20029;-70
2022/06/30 09:29:45;;;;;;;8.30;3.63;;;;;;;;;;5026295;28;20018;-69
2022/06/30 09:32:10;;;;;;;29.88;5.65;;;;;;;;;;5029471;28;20029;-69
2022/06/30 09:34:37;;;;;;;5.40;3.47;;;;;;;;;;5024899;28;20018;-69
2022/06/30 09:37:13;;;;;;;7.85;4.00;;;;;;;;;;5030265;28;20032;-69
2022/06/30 09:39:41;;;;;;;6.95;3.65;;;;;;;;;;5028221;28;20398;-69
2022/06/30 09:42:06;;;;;;;7.00;3.50;;;;;;;;;;5024393;28;20092;-69
2022/06/30 09:44:34;;;;;;;7.97;3.40;;;;;;;;;;5026258;28;20184;-69
2022/06/30 09:47:12;;;;;;;4.97;3.25;;;;;;;;;;5025414;28;20493;-69
2022/06/30 09:49:39;;;;;;;8.15;2.88;;;;;;;;;;5026870;28;20047;-69
2022/06/30 09:52:14;;;;;;;5.10;2.40;;;;;;;;;;5031964;28;20082;-69
2022/06/30 09:54:50;;;;;;;7.75;3.05;;;;;;;;;;5028248;28;20022;-69
2022/06/30 09:57:15;;;;;;;4.07;2.80;;;;;;;;;;5014108;28;20039;-69
2022/06/30 09:59:40;;;;;;;9.68;3.25;;;;;;;;;;5026169;28;20025;-69
2022/06/30 10:02:09;;;;;;;6.80;2.70;;;;;;;;;;5018900;28;20017;-69
2022/06/30 10:04:54;;;;;;;5.57;2.72;;;;;;;;;;5019084;28;20040;-69
2022/06/30 10:07:19;;;;;;;9.75;2.85;;;;;;;;;;5030147;28;20072;-69
2022/06/30 10:09:45;;;;;;;5.63;2.85;;;;;;;;;;5030474;28;20013;-69
2022/06/30 10:12:11;;;;;;;6.47;2.35;;;;;;;;;;5026938;28;20025;-69
2022/06/30 10:14:37;;;;;;;7.63;3.15;;;;;;;;;;5029078;28;20052;-70
2022/06/30 10:17:05;;;;;;;8.98;2.80;;;;;;;;;;5030227;28;20006;-70
2022/06/30 10:19:30;;;;;;;5.00;2.80;;;;;;;;;;5028772;28;20025;-69
2022/06/30 10:21:56;;;;;;;4.37;2.60;;;;;;;;;;5027320;28;20536;-70
2022/06/30 10:24:21;;;;;;;5.15;2.90;;;;;;;;;;5026899;28;20283;-70
2022/06/30 10:29:31;;;;;;;7.20;2.45;;;;;;;;;;5022135;28;20087;-70
2022/06/30 10:32:08;;;;;;;4.45;2.20;;;;;;;;;;5030098;28;20029;-70
2022/06/30 10:34:36;;;;;;;3.33;2.40;;;;;;;;;;5030450;28;20025;-70
2022/06/30 10:37:14;;;;;;;6.78;2.70;;;;;;;;;;5030362;28;20048;-70
2022/06/30 10:39:48;;;;;;;4.93;3.20;;;;;;;;;;5030273;28;20041;-69
2022/06/30 10:42:46;;;;;;;4.43;2.33;;;;;;;;;;5025682;28;20060;-70
2022/06/30 10:45:26;;;;;;;6.88;2.28;;;;;;;;;;5037906;28;20038;-70
2022/06/30 10:47:58;;;;;;;5.10;2.42;;;;;;;;;;5030093;28;20017;-70
2022/06/30 10:50:38;;;;;;;6.50;2.40;;;;;;;;;;5032279;28;20535;-70
2022/06/30 10:53:04;;;;;;;6.63;2.30;;;;;;;;;;5028886;28;20103;-69
2022/06/30 10:55:40;;;;;;;7.18;2.47;;;;;;;;;;5028151;28;20108;-69
2022/06/30 10:58:07;;;;;;;12.55;2.72;;;;;;;;;;5032000;28;20060;-69
2022/06/30 11:00:42;;;;;;;7.10;2.67;;;;;;;;;;5030089;28;20024;-70
2022/06/30 11:03:08;;;;;;;6.07;3.17;;;;;;;;;;5033294;28;20086;-70
2022/06/30 11:05:33;;;;;;;6.18;2.85;;;;;;;;;;5033537;28;20096;-69
2022/06/30 11:08:21;;;;;;;7.65;3.13;;;;;;;;;;5026532;28;20320;-70
2022/06/30 11:10:47;;;;;;;6.03;2.65;;;;;;;;;;5020783;28;20029;-70
2022/06/30 11:13:12;;;;;;;7.93;2.90;;;;;;;;;;5032267;28;20029;-70
2022/06/30 11:15:50;;;;;;;5.13;3.10;;;;;;;;;;5033289;28;20022;-69
2022/06/30 11:18:16;;;;;;;5.72;2.80;;;;;;;;;;5032810;28;20473;-70
2022/06/30 11:20:41;;;;;;;4.27;2.90;;;;;;;;;;5028798;28;20111;-70
2022/06/30 11:23:07;;;;;;;3.65;2.20;;;;;;;;;;5031046;28;20637;-70
2022/06/30 11:28:18;;;;;;;6.15;3.05;;;;;;;;;;5029859;28;20485;-70
2022/06/30 11:30:43;;;;;;;11.20;2.60;;;;;;;;;;5031920;28;20100;-69
2022/06/30 11:33:08;;;;;;;8.25;2.80;;;;;;;;;;5030748;28;20150;-70
2022/06/30 11:35:34;;;;;;;6.17;3.17;;;;;;;;;;5031022;28;20389;-70
2022/06/30 11:37:59;;;;;;;9.67;2.63;;;;;;;;;;5029365;28;20091;-70
2022/06/30 11:40:24;;;;;;;10.73;3.40;;;;;;;;;;5029994;28;20353;-70
2022/06/30 11:42:51;;;;;;;7.30;3.00;;;;;;;;;;5031821;28;20095;-70
2022/06/30 11:45:19;;;;;;;12.73;2.95;;;;;;;;;;5032414;28;20327;-70
2022/06/30 11:48:00;;;;;;;6.27;2.83;;;;;;;;;;5027986;28;20021;-70
2022/06/30 11:50:26;;;;;;;7.57;2.72;;;;;;;;;;5028163;28;20021;-70
2022/06/30 11:52:51;;;;;;;6.10;2.67;;;;;;;;;;5031469;28;20053;-70
2022/06/30 11:55:17;;;;;;;7.95;2.70;;;;;;;;;;5030219;28;20130;-70
2022/06/30 11:57:43;;;;;;;11.20;2.95;;;;;;;;;;5031434;28;20497;-70
2022/06/30 12:00:10;;;;;;;6.85;2.60;;;;;;;;;;5030537;28;20021;-69
2022/06/30 12:02:36;;;;;;;11.13;2.88;;;;;;;;;;5028750;28;20382;-69
2022/06/30 12:05:02;;;;;;;8.43;3.78;;;;;;;;;;5028150;28;20018;-70
2022/06/30 12:07:28;;;;;;;8.15;2.60;;;;;;;;;;5031097;28;20029;-70
2022/06/30 12:09:54;;;;;;;8.30;3.13;;;;;;;;;;5027453;28;20023;-70
2022/06/30 12:12:23;;;;;;;13.40;3.47;;;;;;;;;;5031989;28;20032;-70
2022/06/30 12:14:52;;;;;;;11.43;2.83;;;;;;;;;;5032319;28;20108;-70
2022/06/30 12:17:17;;;;;;;8.10;2.38;;;;;;;;;;5032271;28;20026;-70
2022/06/30 12:19:45;;;;;;;10.30;2.30;;;;;;;;;;5026316;28;20116;-70
2022/06/30 12:22:10;;;;;;;7.25;2.47;;;;;;;;;;5028021;28;20493;-70
2022/06/30 12:24:38;;;;;;;10.50;2.60;;;;;;;;;;5028954;28;20021;-70
2022/06/30 12:27:03;;;;;;;12.52;3.00;;;;;;;;;;5026975;28;20931;-70
2022/06/30 12:29:29;;;;;;;8.65;2.92;;;;;;;;;;5027021;28;20035;-70
2022/06/30 12:32:09;;;;;;;8.52;2.60;;;;;;;;;;5027005;28;20359;-70
2022/06/30 12:34:34;;;;;;;;;;;;;;;;;;5027635;28;20018;-70
2022/06/30 12:37:03;;;;;;;6.95;2.60;;;;;;;;;;5030201;28;20047;-70
2022/06/30 12:39:30;;;;;;;6.77;2.90;;;;;;;;;;5029126;28;20028;-70
2022/06/30 12:42:05;;;;;;;9.13;2.40;;;;;;;;;;5024332;28;20688;-70
2022/06/30 12:44:32;;;;;;;8.40;2.80;;;;;;;;;;5031278;28;20030;-70
2022/06/30 12:47:10;;;;;;;12.55;2.97;;;;;;;;;;5031539;28;20014;-69
2022/06/30 12:49:36;;;;;;;9.15;3.05;;;;;;;;;;5030872;28;20021;-70
2022/06/30 12:52:14;;;;;;;7.68;3.10;;;;;;;;;;5024075;28;20022;-70
2022/06/30 12:54:57;;;;;;;7.72;2.85;;;;;;;;;;5027893;28;20719;-69
2022/06/30 12:57:23;;;;;;;7.15;2.63;;;;;;;;;;5029360;28;20017;-69
2022/06/30 12:59:52;;;;;;;10.90;3.13;;;;;;;;;;5028761;28;20020;-69
2022/06/30 13:02:18;;;;;;;4.68;2.40;;;;;;;;;;5030614;28;20037;-70
2022/06/30 13:04:51;;;;;;;8.10;2.85;;;;;;;;;;5060080;23;20057;-67
2022/06/30 13:07:17;;;;;;;18.98;3.55;;;;;;;;;;4989152;28;20383;-69
2022/06/30 13:09:43;;;;;;;9.60;2.95;;;;;;;;;;4982619;28;20077;-67
2022/06/30 13:12:08;;;;;;;16.65;2.78;;;;;;;;;;4989034;28;20034;-68
2022/06/30 13:14:34;;;;;;;11.48;2.60;;;;;;;;;;4989725;28;20387;-68
2022/06/30 13:17:00;;;;;;;10.73;2.60;;;;;;;;;;4974638;28;20099;-67
2022/06/30 13:19:26;;;;;;;7.88;2.70;;;;;;;;;;4972913;28;20022;-68
2022/06/30 13:21:51;;;;;;;5.78;3.00;;;;;;;;;;4969396;28;20034;-66
2022/06/30 13:24:17;;;;;;;5.28;2.60;;;;;;;;;;4968777;28;20041;-67
2022/06/30 13:26:43;;;;;;;8.52;2.33;;;;;;;;;;4971360;28;20019;-67
2022/06/30 13:29:09;;;;;;;8.80;2.67;;;;;;;;;;4970166;28;20490;-67
2022/06/30 13:31:36;;;;;;;11.90;3.30;;;;;;;;;;4970910;28;20015;-67
2022/06/30 13:34:02;;;;;;;6.45;2.42;;;;;;;;;;4968499;28;20027;-67
2022/06/30 13:36:30;;;;;;;11.25;2.50;;;;;;;;;;4973888;28;20375;-67
2022/06/30 13:38:55;;;;;;;5.75;2.95;;;;;;;;;;4968640;28;20353;-67
2022/06/30 13:41:20;;;;;;;4.13;2.50;;;;;;;;;;4971847;28;20121;-67
2022/06/30 13:43:46;;;;;;;4.72;2.45;;;;;;;;;;4970752;28;20411;-67
2022/06/30 13:46:11;;;;;;;5.90;2.90;;;;;;;;;;4971481;28;20015;-67
2022/06/30 13:48:37;;;;;;;8.70;2.83;;;;;;;;;;4969716;28;20033;-68
2022/06/30 13:51:02;;;;;;;12.93;3.85;;;;;;;;;;4971550;28;20506;-67
2022/06/30 13:53:27;;;;;;;7.25;2.72;;;;;;;;;;4977561;28;20018;-67
2022/06/30 13:55:53;;;;;;;6.07;2.33;;;;;;;;;;4969559;28;20025;-67
2022/06/30 13:58:18;;;;;;;9.95;3.22;;;;;;;;;;4969763;28;20081;-67
2022/06/30 14:00:43;;;;;;;3.15;2.38;;;;;;;;;;4971056;28;20031;-67
2022/06/30 14:03:08;;;;;;;4.20;2.97;;;;;;;;;;4970334;28;20066;-67
2022/06/30 14:05:34;;;;;;;6.30;2.42;;;;;;;;;;4970149;28;20855;-67
2022/06/30 14:07:59;;;;;;;3.50;2.67;;;;;;;;;;4973479;28;20029;-67
2022/06/30 14:10:24;;;;;;;3.40;2.58;;;;;;;;;;4972673;28;20465;-67
2022/06/30 14:12:49;;;;;;;7.57;2.65;;;;;;;;;;4970373;28;20034;-68
2022/06/30 14:15:15;;;;;;;5.50;2.75;;;;;;;;;;4971134;28;20018;-68
2022/06/30 14:17:40;;;;;;;7.53;2.57;;;;;;;;;;4969982;28;20034;-67
2022/06/30 14:20:06;;;;;;;7.57;2.78;;;;;;;;;;4968503;28;20285;-68
2022/06/30 14:22:31;;;;;;;3.40;2.78;;;;;;;;;;4970947;28;20034;-67
2022/06/30 14:24:57;;;;;;;4.32;2.60;;;;;;;;;;4974921;28;20376;-68
2022/06/30 14:27:22;;;;;;;4.87;2.57;;;;;;;;;;4975150;28;20069;-68
2022/06/30 14:29:47;;;;;;;4.93;2.77;;;;;;;;;;4975228;28;20269;-68
2022/06/30 14:32:12;;;;;;;5.82;3.03;;;;;;;;;;4974069;28;20388;-68
2022/06/30 14:34:37;;;;;;;7.20;2.50;;;;;;;;;;4973059;28;20046;-68
2022/06/30 14:37:04;;;;;;;3.83;2.50;;;;;;;;;;4973046;28;20019;-68
2022/06/30 14:39:29;;;;;;;5.32;2.30;;;;;;;;;;4978090;28;20395;-68
2022/06/30 14:44:38;;;;;;;6.75;2.92;;;;;;;;;;4972574;28;20482;-68
2022/06/30 14:47:03;;;;;;;4.00;2.60;;;;;;;;;;4973124;28;20027;-68
2022/06/30 14:49:28;;;;;;;6.55;3.10;;;;;;;;;;4971123;28;20293;-67
2022/06/30 14:51:53;;;;;;;7.10;2.70;;;;;;;;;;4974681;28;20011;-68